createdAt,value
2022-08-07T00:02:36.787Z,101298.78
2022-08-07T00:05:01.085Z,101285.53
2022-08-07T00:07:40.602Z,101299.66
2022-08-07T00:10:26.294Z,101290.88
2022-08-07T00:13:17.588Z,101276.78
2022-08-07T00:15:51.642Z,101284.78
2022-08-07T00:18:24.097Z,101286.16
2022-08-07T00:20:54.837Z,101288.97
2022-08-07T00:23:28.481Z,101279.38
2022-08-07T00:26:02.853Z,101283.56
2022-08-07T00:28:45.728Z,101272.69
2022-08-07T00:31:16.498Z,101272.91
2022-08-07T00:33:47.601Z,101270.56
2022-08-07T00:36:16.803Z,101275.59
2022-08-07T00:38:46.331Z,101285.53
2022-08-07T00:41:14.634Z,101288.47
2022-08-07T00:44:01.046Z,101279.38
2022-08-07T00:46:32.927Z,101278.75
2022-08-07T00:49:02.874Z,101268.53
2022-08-07T00:51:57.422Z,101272.31
2022-08-07T00:54:20.777Z,101274.00
2022-08-07T00:56:50.883Z,101271.53
2022-08-07T00:59:20.235Z,101276.72
2022-08-07T01:02:03.788Z,101276.78
2022-08-07T01:04:43.186Z,101273.69
2022-08-07T01:07:11.940Z,101261.66
2022-08-07T01:10:06.619Z,101245.66
2022-08-07T01:12:31.306Z,101263.56
2022-08-07T01:15:01.085Z,101265.94
2022-08-07T01:17:33.459Z,101259.41
2022-08-07T01:20:06.537Z,101270.59
2022-08-07T01:22:46.569Z,101259.41
2022-08-07T01:25:40.515Z,101265.09
2022-08-07T01:28:03.966Z,101263.22
2022-08-07T01:30:33.436Z,101256.59
2022-08-07T01:33:02.291Z,101259.72
2022-08-07T01:35:36.910Z,101256.50
2022-08-07T01:38:24.834Z,101260.91
2022-08-07T01:40:56.608Z,101261.75
2022-08-07T01:43:26.102Z,101259.25
2022-08-07T01:45:55.503Z,101269.56
2022-08-07T01:48:29.747Z,101255.81
2022-08-07T01:51:24.134Z,101264.72
2022-08-07T01:54:12.097Z,101264.16
2022-08-07T01:56:49.342Z,101266.06
2022-08-07T01:59:23.712Z,101263.78
2022-08-07T02:02:06.164Z,101251.91
2022-08-07T02:04:55.725Z,101247.91
2022-08-07T02:07:35.803Z,101263.69
2022-08-07T02:10:16.316Z,101256.81
2022-08-07T02:12:49.199Z,101257.38
2022-08-07T02:15:23.258Z,101256.81
2022-08-07T02:17:56.456Z,101246.44
2022-08-07T02:20:24.891Z,101240.38
2022-08-07T02:22:59.780Z,101246.31
2022-08-07T02:26:30.952Z,101253.94
2022-08-07T02:28:24.502Z,101255.59
2022-08-07T02:30:54.826Z,101253.03
2022-08-07T02:33:42.103Z,101258.28
2022-08-07T02:36:29.322Z,101246.38
2022-08-07T02:39:16.230Z,101248.72
2022-08-07T02:49:06.470Z,101246.25
2022-08-07T02:51:42.768Z,101237.91
2022-08-07T02:54:21.719Z,101252.47
2022-08-07T02:56:55.846Z,101227.25
2022-08-07T02:59:29.058Z,101244.69
2022-08-07T03:01:57.879Z,101240.72
2022-08-07T03:04:31.324Z,101238.00
2022-08-07T03:07:07.235Z,101238.00
2022-08-07T03:09:43.282Z,101237.44
2022-08-07T03:12:22.570Z,101235.78
2022-08-07T03:15:02.591Z,101230.13
2022-08-07T03:17:53.920Z,101229.97
2022-08-07T03:20:23.054Z,101233.56
2022-08-07T03:22:53.657Z,101216.41
2022-08-07T03:25:23.757Z,101230.59
2022-08-07T03:27:59.047Z,101225.56
2022-08-07T03:30:29.298Z,101226.66
2022-08-07T03:33:01.016Z,101228.56
2022-08-07T03:35:43.600Z,101222.66
2022-08-07T03:38:21.270Z,101226.19
2022-08-07T03:40:57.322Z,101221.22
2022-08-07T03:43:32.246Z,101235.06
2022-08-07T03:46:02.896Z,101216.22
2022-08-07T03:48:32.912Z,101214.94
2022-08-07T03:51:03.729Z,101226.72
2022-08-07T03:54:05.634Z,101218.81
2022-08-07T03:56:33.382Z,101226.53
2022-08-07T03:59:08.954Z,101221.53
2022-08-07T04:01:45.775Z,101221.13
2022-08-07T04:04:17.466Z,101225.47
2022-08-07T04:06:46.533Z,101226.16
2022-08-07T04:09:23.481Z,101232.03
2022-08-07T04:12:27.870Z,101228.25
2022-08-07T04:14:47.739Z,101215.91
2022-08-07T04:17:21.345Z,101232.88
2022-08-07T04:19:52.370Z,101231.59
2022-08-07T04:22:27.623Z,101223.47
2022-08-07T04:25:01.578Z,101232.41
2022-08-07T04:27:35.819Z,101234.97
2022-08-07T04:30:36.034Z,101227.81
2022-08-07T04:32:58.887Z,101239.72
2022-08-07T04:35:26.977Z,101236.59
2022-08-07T04:38:06.848Z,101248.91
2022-08-07T04:40:35.969Z,101254.34
2022-08-07T04:43:12.686Z,101246.16
2022-08-07T04:46:00.945Z,101235.44
2022-08-07T04:48:39.714Z,101247.63
2022-08-07T04:51:19.936Z,101254.91
2022-08-07T04:54:06.338Z,101254.50
2022-08-07T04:58:13.818Z,101239.16
2022-08-07T05:00:11.341Z,101257.13
2022-08-07T05:02:31.971Z,101252.47
2022-08-07T05:05:11.492Z,101262.06
2022-08-07T05:07:59.715Z,101258.59
2022-08-07T05:10:31.953Z,101259.84
2022-08-07T05:14:44.794Z,101263.19
2022-08-07T05:15:54.514Z,101258.94
2022-08-07T05:18:29.629Z,101265.66
2022-08-07T05:21:01.509Z,101261.44
2022-08-07T05:23:35.528Z,101265.19
2022-08-07T05:26:12.847Z,101269.63
2022-08-07T05:28:49.986Z,101265.25
2022-08-07T05:31:20.166Z,101272.63
2022-08-07T05:34:01.543Z,101259.06
2022-08-07T05:36:35.263Z,101283.47
2022-08-07T05:40:05.753Z,101280.22
2022-08-07T05:42:02.472Z,101283.31
2022-08-07T05:44:34.827Z,101286.53
2022-08-07T05:47:18.424Z,101289.19
2022-08-07T05:49:50.565Z,101281.19
2022-08-07T05:52:20.319Z,101278.06
2022-08-07T05:54:55.960Z,101282.97
2022-08-07T05:57:30.148Z,101277.75
2022-08-07T06:00:02.871Z,101280.50
2022-08-07T06:02:36.408Z,101299.06
2022-08-07T06:05:10.935Z,101288.84
2022-08-07T06:08:12.888Z,101299.97
2022-08-07T06:10:33.495Z,101281.78
2022-08-07T06:13:04.144Z,101297.50
2022-08-07T06:15:39.380Z,101307.13
2022-08-07T06:18:13.994Z,101286.50
2022-08-07T06:20:50.496Z,101297.16
2022-08-07T06:24:37.748Z,101301.81
2022-08-07T06:26:21.818Z,101293.84
2022-08-07T06:28:57.985Z,101293.59
2022-08-07T06:31:47.209Z,101284.19
2022-08-07T06:34:15.509Z,101290.88
2022-08-07T06:36:51.714Z,101296.16
2022-08-07T06:40:17.801Z,101290.16
2022-08-07T06:42:12.789Z,101277.88
2022-08-07T06:44:41.985Z,101278.00
2022-08-07T06:47:12.371Z,101284.69
2022-08-07T06:49:52.261Z,101281.25
2022-08-07T06:52:35.640Z,101266.78
2022-08-07T06:55:33.046Z,101267.75
2022-08-07T06:57:59.464Z,101262.97
2022-08-07T07:00:28.738Z,101271.63
2022-08-07T07:03:00.933Z,101262.75
2022-08-07T07:06:03.376Z,101273.81
2022-08-07T07:08:28.494Z,101260.66
2022-08-07T07:10:57.859Z,101268.16
2022-08-07T07:13:40.859Z,101271.06
2022-08-07T07:16:27.499Z,101275.03
2022-08-07T07:19:04.203Z,101257.38
2022-08-07T07:22:04.885Z,101261.28
2022-08-07T07:24:57.036Z,101255.47
2022-08-07T07:27:35.675Z,101256.31
2022-08-07T07:30:32.561Z,101262.84
2022-08-07T07:33:07.793Z,101262.06
2022-08-07T07:35:54.753Z,101264.13
2022-08-07T07:38:26.477Z,101258.19
2022-08-07T07:41:02.107Z,101255.88
2022-08-07T07:43:48.172Z,101240.31
2022-08-07T07:46:39.741Z,101238.28
2022-08-07T07:50:35.973Z,101247.88
2022-08-07T07:52:05.906Z,101243.41
2022-08-07T07:54:36.831Z,101238.72
2022-08-07T07:57:07.380Z,101239.66
2022-08-07T07:59:52.639Z,101236.13
2022-08-07T08:02:34.007Z,101237.56
2022-08-07T08:05:05.434Z,101230.47
2022-08-07T08:10:35.543Z,101230.44
2022-08-07T08:13:15.217Z,101226.63
2022-08-07T08:15:58.574Z,101232.69
2022-08-07T08:18:28.626Z,101224.72
2022-08-07T08:20:58.030Z,101220.72
2022-08-07T08:23:45.753Z,101218.03
2022-08-07T08:26:34.479Z,101210.59
2022-08-07T08:29:06.242Z,101212.91
2022-08-07T08:32:17.092Z,101210.47
2022-08-07T08:34:29.300Z,101208.56
2022-08-07T08:36:58.889Z,101201.22
2022-08-07T08:39:39.789Z,101202.00
2022-08-07T08:42:25.776Z,101200.38
2022-08-07T08:45:06.687Z,101204.81
2022-08-07T08:47:52.062Z,101200.97
2022-08-07T08:50:35.267Z,101194.97
2022-08-07T08:53:19.194Z,101195.88
2022-08-07T08:55:54.954Z,101191.47
2022-08-07T08:58:35.842Z,101184.84
2022-08-07T09:01:15.071Z,101189.00
2022-08-07T09:03:56.671Z,101184.81
2022-08-07T09:06:38.349Z,101180.97
2022-08-07T09:09:21.147Z,101189.31
2022-08-07T09:12:19.980Z,101176.31
2022-08-07T09:16:24.458Z,101185.41
2022-08-07T09:18:22.488Z,101179.34
2022-08-07T09:21:00.933Z,101161.00
2022-08-07T09:24:32.765Z,101177.31
2022-08-07T09:26:39.507Z,101161.03
2022-08-07T09:30:06.370Z,101165.41
2022-08-07T09:32:26.433Z,101160.72
2022-08-07T09:36:04.245Z,101158.47
2022-08-07T09:38:10.960Z,101161.22
2022-08-07T09:40:52.213Z,101155.09
2022-08-07T09:44:03.545Z,101142.81
2022-08-07T09:47:49.985Z,101151.56
2022-08-07T09:50:02.315Z,101142.84
2022-08-07T09:52:51.789Z,101137.88
2022-08-07T09:55:29.335Z,101128.06
2022-08-07T09:58:31.977Z,101132.56
2022-08-07T10:01:50.460Z,101118.72
2022-08-07T10:04:32.601Z,101112.38
2022-08-07T10:07:39.817Z,101111.47
2022-08-07T10:10:24.964Z,101105.28
2022-08-07T10:13:54.972Z,101107.22
2022-08-07T10:16:19.085Z,101094.97
2022-08-07T10:19:17.757Z,101090.59
2022-08-07T10:22:15.785Z,101088.25
2022-08-07T10:24:52.560Z,101084.94
2022-08-07T10:27:46.546Z,101090.63
2022-08-07T10:30:18.960Z,101084.63
2022-08-07T10:33:15.428Z,101076.78
2022-08-07T10:36:10.846Z,101070.72
2022-08-07T10:38:50.192Z,101077.78
2022-08-07T10:41:51.941Z,101070.13
2022-08-07T10:44:38.680Z,101065.06
2022-08-07T10:47:26.571Z,101059.97
2022-08-07T10:50:06.883Z,101069.09
2022-08-07T10:52:42.727Z,101063.59
2022-08-07T10:55:32.636Z,101051.78
2022-08-07T10:58:36.669Z,101059.28
2022-08-07T11:01:51.617Z,101044.22
2022-08-07T11:04:41.760Z,101052.00
2022-08-07T11:07:58.953Z,101051.63
2022-08-07T11:10:20.988Z,101043.84
2022-08-07T11:13:02.573Z,101045.00
2022-08-07T11:15:35.358Z,101038.25
2022-08-07T11:18:13.393Z,101045.06
2022-08-07T11:20:48.044Z,101030.66
2022-08-07T11:23:26.200Z,101037.28
2022-08-07T11:26:09.566Z,101029.53
2022-08-07T11:28:55.343Z,101028.84
2022-08-07T11:31:38.119Z,101016.31
2022-08-07T11:34:18.821Z,101011.63
2022-08-07T11:37:00.264Z,101015.34
2022-08-07T11:39:59.795Z,101013.09
2022-08-07T11:42:40.024Z,101013.38
2022-08-07T11:45:35.632Z,101009.59
2022-08-07T11:48:29.662Z,101005.72
2022-08-07T11:51:41.955Z,100990.97
2022-08-07T11:54:27.368Z,100979.19
2022-08-07T11:57:12.726Z,101000.53
2022-08-07T12:00:10.083Z,100998.72
2022-08-07T12:03:45.739Z,100992.00
2022-08-07T12:06:56.203Z,100989.66
2022-08-07T12:09:36.211Z,100982.53
2022-08-07T12:12:11.383Z,100978.09
2022-08-07T12:14:52.756Z,100983.47
2022-08-07T12:17:33.810Z,100975.34
2022-08-07T12:20:18.601Z,100973.50
2022-08-07T12:23:15.944Z,100966.38
2022-08-07T12:26:05.559Z,100969.84
2022-08-07T12:28:53.004Z,100963.69
2022-08-07T12:31:53.126Z,100958.31
2022-08-07T12:34:21.034Z,100967.81
2022-08-07T12:36:54.382Z,100973.28
2022-08-07T12:39:44.064Z,100955.31
2022-08-07T12:42:27.228Z,100959.53
2022-08-07T12:44:59.151Z,100956.47
2022-08-07T12:47:37.767Z,100944.19
2022-08-07T12:50:38.460Z,100945.03
2022-08-07T12:53:18.041Z,100940.03
2022-08-07T12:56:02.417Z,100948.41
2022-08-07T12:58:37.459Z,100942.41
2022-08-07T13:01:16.699Z,100943.72
2022-08-07T13:04:18.868Z,100940.50
2022-08-07T13:07:03.890Z,100940.47
2022-08-07T13:10:37.086Z,100934.34
2022-08-07T13:13:11.478Z,100916.13
2022-08-07T13:16:03.491Z,100933.47
2022-08-07T13:18:49.136Z,100926.00
2022-08-07T13:21:35.044Z,100930.75
2022-08-07T13:24:25.675Z,100921.47
2022-08-07T13:27:02.882Z,100922.53
2022-08-07T13:29:47.731Z,100910.16
2022-08-07T13:32:32.262Z,100916.06
2022-08-07T13:35:09.225Z,100917.38
2022-08-07T13:37:55.402Z,100914.13
2022-08-07T13:40:35.199Z,100917.63
2022-08-07T13:43:13.852Z,100900.19
2022-08-07T13:46:11.928Z,100910.72
2022-08-07T13:48:39.251Z,100911.72
2022-08-07T13:51:26.907Z,100908.75
2022-08-07T13:54:02.054Z,100890.22
2022-08-07T13:56:35.658Z,100906.84
2022-08-07T13:59:13.478Z,100885.44
2022-08-07T14:01:59.079Z,100867.78
2022-08-07T14:04:38.064Z,100876.59
2022-08-07T14:07:16.669Z,100863.63
2022-08-07T14:10:14.986Z,100858.19
2022-08-07T14:12:41.666Z,100864.94
2022-08-07T14:15:19.173Z,100862.63
2022-08-07T14:18:23.592Z,100867.28
2022-08-07T14:20:48.944Z,100837.41
2022-08-07T14:23:59.298Z,100860.50
2022-08-07T14:26:23.649Z,100849.22
2022-08-07T14:29:08.842Z,100857.78
2022-08-07T14:31:56.444Z,100845.47
2022-08-07T14:34:30.037Z,100855.22
2022-08-07T14:37:03.444Z,100844.59
2022-08-07T14:40:15.653Z,100839.19
2022-08-07T14:42:26.081Z,100832.44
2022-08-07T14:44:59.780Z,100846.84
2022-08-07T14:47:48.071Z,100830.25
2022-08-07T14:50:20.421Z,100827.34
2022-08-07T14:52:50.374Z,100828.78
2022-08-07T14:55:21.602Z,100819.78
2022-08-07T14:57:58.684Z,100817.44
2022-08-07T15:00:31.377Z,100825.47
2022-08-07T15:03:18.688Z,100821.63
2022-08-07T15:05:54.697Z,100825.56
2022-08-07T15:11:53.340Z,100815.66
2022-08-07T15:14:21.695Z,100824.84
2022-08-07T15:16:55.855Z,100813.16
2022-08-07T15:22:29.444Z,100796.13
2022-08-07T15:25:17.753Z,100812.84
2022-08-07T15:28:30.971Z,100800.13
2022-08-07T15:31:04.518Z,100811.19
2022-08-07T15:33:33.957Z,100800.66
2022-08-07T15:36:07.487Z,100794.22
2022-08-07T15:38:51.203Z,100794.19
2022-08-07T15:42:44.389Z,100793.38
2022-08-07T15:44:23.507Z,100790.22
2022-08-07T15:47:03.423Z,100791.88
2022-08-07T15:50:04.135Z,100799.09
2022-08-07T15:52:30.200Z,100788.09
2022-08-07T15:55:08.676Z,100791.50
2022-08-07T15:57:47.627Z,100786.50
2022-08-07T16:00:31.528Z,100771.81
2022-08-07T16:03:04.413Z,100799.19
2022-08-07T16:05:33.217Z,100795.97
2022-08-07T16:08:32.777Z,100791.06
2022-08-07T16:11:00.969Z,100785.22
2022-08-07T16:13:58.551Z,100787.47
2022-08-07T16:16:56.909Z,100788.13
2022-08-07T16:19:43.128Z,100787.47
2022-08-07T16:22:54.927Z,100778.91
2022-08-07T16:25:55.505Z,100792.75
2022-08-07T16:29:18.487Z,100793.53
2022-08-07T16:31:57.893Z,100786.69
2022-08-07T16:34:40.680Z,100784.16
2022-08-07T16:38:04.243Z,100787.00
2022-08-07T16:41:02.282Z,100784.94
2022-08-07T16:44:06.157Z,100777.06
2022-08-07T16:47:23.214Z,100792.47
2022-08-07T16:50:35.727Z,100789.59
2022-08-07T16:54:01.769Z,100794.53
2022-08-07T16:56:24.620Z,100794.63
2022-08-07T16:59:14.567Z,100765.47
2022-08-07T17:02:02.783Z,100786.91
2022-08-07T17:04:51.016Z,100790.81
2022-08-07T17:07:55.776Z,100785.16
2022-08-07T17:10:33.937Z,100779.28
2022-08-07T17:13:41.898Z,100789.06
2022-08-07T17:16:24.986Z,100787.34
2022-08-07T17:19:03.142Z,100791.63
2022-08-07T17:21:51.437Z,100786.91
2022-08-07T17:24:48.601Z,100786.75
2022-08-07T17:27:32.600Z,100778.22
2022-08-07T17:30:16.194Z,100805.53
2022-08-07T17:32:57.259Z,100790.50
2022-08-07T17:35:51.307Z,100791.31
2022-08-07T17:38:33.986Z,100789.06
2022-08-07T17:42:03.096Z,100777.81
2022-08-07T17:44:09.317Z,100804.53
2022-08-07T17:46:52.544Z,100788.63
2022-08-07T17:49:26.112Z,100788.94
2022-08-07T17:52:01.276Z,100805.94
2022-08-07T17:54:40.056Z,100791.28
2022-08-07T17:57:56.687Z,100804.41
2022-08-07T18:00:33.062Z,100800.16
2022-08-07T18:03:18.198Z,100809.00
2022-08-07T18:06:01.773Z,100804.16
2022-08-07T18:08:54.240Z,100798.47
2022-08-07T18:12:07.646Z,100799.19
2022-08-07T18:14:28.200Z,100806.81
2022-08-07T18:17:00.423Z,100803.69
2022-08-07T18:21:09.408Z,100798.84
2022-08-07T18:22:36.591Z,100805.44
2022-08-07T18:25:19.491Z,100810.34
2022-08-07T18:28:34.555Z,100816.44
2022-08-07T18:31:09.501Z,100819.06
2022-08-07T18:34:37.201Z,100825.59
2022-08-07T18:37:15.105Z,100834.66
2022-08-07T18:40:42.358Z,100840.00
2022-08-07T18:43:14.909Z,100847.09
2022-08-07T18:46:24.416Z,100838.03
2022-08-07T18:50:05.771Z,100850.31
2022-08-07T18:52:34.343Z,100843.00
2022-08-07T18:54:41.173Z,100832.00
2022-08-07T18:57:40.458Z,100847.38
2022-08-07T19:00:32.402Z,100866.00
2022-08-07T19:03:12.330Z,100856.72
2022-08-07T19:06:03.445Z,100847.97
2022-08-07T19:08:46.284Z,100863.25
2022-08-07T19:11:35.753Z,100859.75
2022-08-07T19:14:19.809Z,100861.41
2022-08-07T19:17:08.115Z,100876.75
2022-08-07T19:19:48.645Z,100870.13
2022-08-07T19:22:31.292Z,100877.88
2022-08-07T19:25:05.449Z,100881.59
2022-08-07T19:28:58.268Z,100885.22
2022-08-07T19:31:00.302Z,100897.41
2022-08-07T19:33:34.878Z,100892.69
2022-08-07T19:36:04.129Z,100894.66
2022-08-07T19:38:36.276Z,100896.94
2022-08-07T19:41:44.356Z,100900.56
2022-08-07T19:44:21.709Z,100908.31
2022-08-07T19:46:58.006Z,100912.44
2022-08-07T19:49:58.402Z,100907.25
2022-08-07T19:52:22.616Z,100922.72
2022-08-07T19:54:56.471Z,100911.94
2022-08-07T19:58:02.984Z,100919.44
2022-08-07T20:00:29.034Z,100930.19
2022-08-07T20:03:04.577Z,100922.47
2022-08-07T20:06:00.930Z,100929.91
2022-08-07T20:08:30.783Z,100933.78
2022-08-07T20:11:03.964Z,100931.00
2022-08-07T20:13:43.617Z,100930.47
2022-08-07T20:16:32.115Z,100935.72
2022-08-07T20:19:09.935Z,100934.31
2022-08-07T20:21:42.306Z,100939.56
2022-08-07T20:24:19.076Z,100934.88
2022-08-07T20:26:50.105Z,100925.75
2022-08-07T20:29:48.802Z,100921.59
2022-08-07T20:32:23.202Z,100939.00
2022-08-07T20:34:58.580Z,100929.03
2022-08-07T20:37:34.115Z,100944.53
2022-08-07T20:40:31.281Z,100948.13
2022-08-07T20:42:57.844Z,100944.50
2022-08-07T20:45:33.265Z,100953.88
2022-08-07T20:48:25.840Z,100943.94
2022-08-07T20:51:02.481Z,100950.50
2022-08-07T20:54:03.984Z,100929.13
2022-08-07T20:56:25.940Z,100950.41
2022-08-07T20:58:58.587Z,100927.75
2022-08-07T21:01:29.579Z,100946.25
2022-08-07T21:04:22.090Z,100929.06
2022-08-07T21:06:57.710Z,100932.66
2022-08-07T21:09:53.155Z,100952.84
2022-08-07T21:12:30.704Z,100932.03
2022-08-07T21:15:06.481Z,100947.84
2022-08-07T21:18:01.979Z,100921.75
2022-08-07T21:20:30.022Z,100937.53
2022-08-07T21:23:07.646Z,100944.97
2022-08-07T21:26:03.112Z,100945.22
2022-08-07T21:28:50.380Z,100946.06
2022-08-07T21:31:49.613Z,100944.06
2022-08-07T21:34:31.800Z,100941.19
2022-08-07T21:37:04.689Z,100931.69
2022-08-07T21:39:46.083Z,100936.13
2022-08-07T21:42:48.384Z,100944.41
2022-08-07T21:46:04.693Z,100941.97
2022-08-07T21:48:28.731Z,100942.88
2022-08-07T21:51:19.313Z,100925.41
2022-08-07T21:53:53.563Z,100955.53
2022-08-07T21:56:36.209Z,100958.53
2022-08-07T21:59:09.253Z,100953.75
2022-08-07T22:02:07.173Z,100965.63
2022-08-07T22:04:36.478Z,100968.97
2022-08-07T22:07:10.218Z,100968.94
2022-08-07T22:09:55.052Z,100969.44
2022-08-07T22:12:31.798Z,100959.50
2022-08-07T22:15:04.222Z,100967.28
2022-08-07T22:17:58.033Z,100957.25
2022-08-07T22:20:35.444Z,100968.25
2022-08-07T22:23:15.406Z,100961.59
2022-08-07T22:25:51.844Z,100962.69
2022-08-07T22:28:32.662Z,100966.28
2022-08-07T22:31:12.518Z,100969.00
2022-08-07T22:34:07.622Z,100975.41
2022-08-07T22:36:48.728Z,100974.63
2022-08-07T22:39:29.092Z,100971.50
2022-08-07T22:42:18.839Z,100970.19
2022-08-07T22:44:58.822Z,100985.31
2022-08-07T22:47:52.111Z,100977.31
2022-08-07T22:50:35.983Z,100985.72
2022-08-07T22:54:05.676Z,100990.50
2022-08-07T22:56:28.697Z,100987.06
2022-08-07T22:59:18.048Z,100976.72
2022-08-07T23:02:04.453Z,100990.53
2022-08-07T23:04:57.651Z,100994.38
2022-08-07T23:07:45.704Z,100996.88
2022-08-07T23:10:37.656Z,100988.28
2022-08-07T23:13:48.819Z,100987.22
2022-08-07T23:16:54.356Z,100978.63
2022-08-07T23:19:57.944Z,100988.88
2022-08-07T23:22:40.687Z,100990.72
2022-08-07T23:25:20.859Z,100972.91
2022-08-07T23:28:22.804Z,100994.50
2022-08-07T23:31:11.701Z,100993.16
2022-08-07T23:34:35.851Z,100983.69
2022-08-07T23:37:19.111Z,100983.63
2022-08-07T23:40:04.238Z,100987.84
2022-08-07T23:42:47.774Z,100994.31
2022-08-07T23:45:50.171Z,100989.75
2022-08-07T23:48:35.095Z,100983.38
2022-08-07T23:52:58.239Z,100985.09
2022-08-07T23:54:11.651Z,100978.75
2022-08-07T23:56:57.657Z,100984.25
